sensor_id;sensor_type;location;lat;lon;timestamp;P1;durP1;ratioP1;P2;durP2;ratioP2
11839;SDS011;5979;50.800;4.904;2023-05-10T00:00:34;7.60;;;5.80;;
11839;SDS011;5979;50.800;4.904;2023-05-10T00:03:00;8.85;;;6.07;;
11839;SDS011;5979;50.800;4.904;2023-05-10T00:05:26;6.50;;;5.78;;
11839;SDS011;5979;50.800;4.904;2023-05-10T00:07:51;7.95;;;5.93;;
11839;SDS011;5979;50.800;4.904;2023-05-10T00:10:17;7.53;;;5.85;;
11839;SDS011;5979;50.800;4.904;2023-05-10T00:12:43;6.38;;;5.78;;
11839;SDS011;5979;50.800;4.904;2023-05-10T00:15:09;6.45;;;5.88;;
11839;SDS011;5979;50.800;4.904;2023-05-10T00:17:35;7.22;;;6.60;;
11839;SDS011;5979;50.800;4.904;2023-05-10T00:20:01;6.55;;;5.85;;
11839;SDS011;5979;50.800;4.904;2023-05-10T00:22:27;6.68;;;6.00;;
11839;SDS011;5979;50.800;4.904;2023-05-10T00:24:52;7.78;;;6.38;;
11839;SDS011;5979;50.800;4.904;2023-05-10T00:27:18;8.68;;;6.28;;
11839;SDS011;5979;50.800;4.904;2023-05-10T00:29:44;7.22;;;6.53;;
11839;SDS011;5979;50.800;4.904;2023-05-10T00:32:10;9.60;;;7.32;;
11839;SDS011;5979;50.800;4.904;2023-05-10T00:34:35;10.20;;;7.60;;
11839;SDS011;5979;50.800;4.904;2023-05-10T00:37:01;9.20;;;7.75;;
11839;SDS011;5979;50.800;4.904;2023-05-10T00:39:27;10.95;;;6.88;;
11839;SDS011;5979;50.800;4.904;2023-05-10T00:41:53;7.22;;;6.32;;
11839;SDS011;5979;50.800;4.904;2023-05-10T00:44:19;9.07;;;7.03;;
11839;SDS011;5979;50.800;4.904;2023-05-10T00:46:45;10.82;;;8.10;;
11839;SDS011;5979;50.800;4.904;2023-05-10T00:49:13;9.60;;;6.97;;
11839;SDS011;5979;50.800;4.904;2023-05-10T00:51:38;7.43;;;6.72;;
11839;SDS011;5979;50.800;4.904;2023-05-10T00:54:05;8.95;;;6.78;;
11839;SDS011;5979;50.800;4.904;2023-05-10T00:56:31;10.57;;;7.03;;
11839;SDS011;5979;50.800;4.904;2023-05-10T00:58:57;7.82;;;6.50;;
11839;SDS011;5979;50.800;4.904;2023-05-10T01:01:23;7.85;;;6.60;;
11839;SDS011;5979;50.800;4.904;2023-05-10T01:03:49;8.75;;;6.68;;
11839;SDS011;5979;50.800;4.904;2023-05-10T01:06:15;8.23;;;7.13;;
11839;SDS011;5979;50.800;4.904;2023-05-10T01:08:41;9.38;;;7.22;;
11839;SDS011;5979;50.800;4.904;2023-05-10T01:11:07;6.85;;;5.70;;
11839;SDS011;5979;50.800;4.904;2023-05-10T01:13:34;9.38;;;7.25;;
11839;SDS011;5979;50.800;4.904;2023-05-10T01:16:03;8.63;;;6.82;;
11839;SDS011;5979;50.800;4.904;2023-05-10T01:18:30;7.40;;;6.72;;
11839;SDS011;5979;50.800;4.904;2023-05-10T01:23:45;8.05;;;7.32;;
11839;SDS011;5979;50.800;4.904;2023-05-10T01:26:38;8.18;;;6.47;;
11839;SDS011;5979;50.800;4.904;2023-05-10T01:29:27;10.07;;;7.22;;
11839;SDS011;5979;50.800;4.904;2023-05-10T01:35:03;8.70;;;7.25;;
11839;SDS011;5979;50.800;4.904;2023-05-10T01:40:19;10.57;;;8.05;;
11839;SDS011;5979;50.800;4.904;2023-05-10T01:42:53;11.10;;;8.13;;
11839;SDS011;5979;50.800;4.904;2023-05-10T01:45:27;9.13;;;7.03;;
11839;SDS011;5979;50.800;4.904;2023-05-10T01:48:09;12.30;;;8.50;;
11839;SDS011;5979;50.800;4.904;2023-05-10T01:50:37;11.43;;;8.13;;
11839;SDS011;5979;50.800;4.904;2023-05-10T01:53:08;12.75;;;8.60;;
11839;SDS011;5979;50.800;4.904;2023-05-10T01:55:39;10.73;;;8.80;;
11839;SDS011;5979;50.800;4.904;2023-05-10T01:58:13;11.75;;;8.30;;
11839;SDS011;5979;50.800;4.904;2023-05-10T02:00:42;10.23;;;8.88;;
11839;SDS011;5979;50.800;4.904;2023-05-10T02:03:09;11.88;;;8.30;;
11839;SDS011;5979;50.800;4.904;2023-05-10T02:05:37;13.43;;;8.85;;
11839;SDS011;5979;50.800;4.904;2023-05-10T02:08:05;10.80;;;9.27;;
11839;SDS011;5979;50.800;4.904;2023-05-10T02:10:32;9.50;;;8.18;;
11839;SDS011;5979;50.800;4.904;2023-05-10T02:13:00;11.00;;;8.82;;
11839;SDS011;5979;50.800;4.904;2023-05-10T02:15:28;9.45;;;8.25;;
11839;SDS011;5979;50.800;4.904;2023-05-10T02:17:56;10.80;;;8.90;;
11839;SDS011;5979;50.800;4.904;2023-05-10T02:20:25;12.20;;;9.25;;
11839;SDS011;5979;50.800;4.904;2023-05-10T02:22:52;11.75;;;8.45;;
11839;SDS011;5979;50.800;4.904;2023-05-10T02:25:20;13.75;;;9.25;;
11839;SDS011;5979;50.800;4.904;2023-05-10T02:27:48;16.58;;;9.48;;
11839;SDS011;5979;50.800;4.904;2023-05-10T02:30:15;11.82;;;9.13;;
11839;SDS011;5979;50.800;4.904;2023-05-10T02:32:42;9.93;;;8.90;;
11839;SDS011;5979;50.800;4.904;2023-05-10T02:35:09;11.07;;;9.15;;
11839;SDS011;5979;50.800;4.904;2023-05-10T02:37:36;12.07;;;8.82;;
11839;SDS011;5979;50.800;4.904;2023-05-10T02:40:04;13.18;;;9.63;;
11839;SDS011;5979;50.800;4.904;2023-05-10T02:42:32;14.98;;;9.05;;
11839;SDS011;5979;50.800;4.904;2023-05-10T02:45:01;11.70;;;9.25;;
11839;SDS011;5979;50.800;4.904;2023-05-10T02:47:30;13.75;;;9.05;;
11839;SDS011;5979;50.800;4.904;2023-05-10T02:49:56;10.63;;;9.32;;
11839;SDS011;5979;50.800;4.904;2023-05-10T02:52:29;10.82;;;8.93;;
11839;SDS011;5979;50.800;4.904;2023-05-10T02:55:02;12.40;;;9.10;;
11839;SDS011;5979;50.800;4.904;2023-05-10T02:57:31;12.25;;;8.48;;
11839;SDS011;5979;50.800;4.904;2023-05-10T02:59:58;10.25;;;8.80;;
11839;SDS011;5979;50.800;4.904;2023-05-10T03:02:25;11.65;;;9.73;;
11839;SDS011;5979;50.800;4.904;2023-05-10T03:04:51;11.95;;;9.43;;
11839;SDS011;5979;50.800;4.904;2023-05-10T03:07:17;11.68;;;10.27;;
11839;SDS011;5979;50.800;4.904;2023-05-10T03:09:46;11.98;;;9.80;;
11839;SDS011;5979;50.800;4.904;2023-05-10T03:17:56;10.77;;;9.18;;
11839;SDS011;5979;50.800;4.904;2023-05-10T03:20:29;12.73;;;10.20;;
11839;SDS011;5979;50.800;4.904;2023-05-10T03:23:06;12.88;;;9.75;;
11839;SDS011;5979;50.800;4.904;2023-05-10T03:25:37;12.10;;;9.82;;
11839;SDS011;5979;50.800;4.904;2023-05-10T03:28:05;10.88;;;9.57;;
11839;SDS011;5979;50.800;4.904;2023-05-10T03:30:31;11.35;;;9.80;;
11839;SDS011;5979;50.800;4.904;2023-05-10T03:33:03;10.57;;;8.77;;
11839;SDS011;5979;50.800;4.904;2023-05-10T03:35:32;10.90;;;9.40;;
11839;SDS011;5979;50.800;4.904;2023-05-10T03:37:58;9.98;;;8.98;;
11839;SDS011;5979;50.800;4.904;2023-05-10T03:40:24;10.70;;;9.57;;
11839;SDS011;5979;50.800;4.904;2023-05-10T03:42:51;11.52;;;10.32;;
11839;SDS011;5979;50.800;4.904;2023-05-10T03:45:17;10.95;;;8.93;;
11839;SDS011;5979;50.800;4.904;2023-05-10T03:47:42;13.73;;;10.52;;
11839;SDS011;5979;50.800;4.904;2023-05-10T03:50:08;10.88;;;9.77;;
11839;SDS011;5979;50.800;4.904;2023-05-10T03:52:35;13.77;;;10.68;;
11839;SDS011;5979;50.800;4.904;2023-05-10T03:55:01;14.98;;;11.20;;
11839;SDS011;5979;50.800;4.904;2023-05-10T03:57:28;15.20;;;11.48;;
11839;SDS011;5979;50.800;4.904;2023-05-10T03:59:54;14.27;;;10.48;;
11839;SDS011;5979;50.800;4.904;2023-05-10T04:02:20;15.48;;;11.63;;
11839;SDS011;5979;50.800;4.904;2023-05-10T04:04:45;13.50;;;11.52;;
11839;SDS011;5979;50.800;4.904;2023-05-10T04:07:11;14.98;;;11.48;;
11839;SDS011;5979;50.800;4.904;2023-05-10T04:09:37;15.07;;;12.23;;
11839;SDS011;5979;50.800;4.904;2023-05-10T04:12:03;17.70;;;12.50;;
11839;SDS011;5979;50.800;4.904;2023-05-10T04:14:29;14.77;;;11.93;;
11839;SDS011;5979;50.800;4.904;2023-05-10T04:16:55;16.55;;;11.75;;
11839;SDS011;5979;50.800;4.904;2023-05-10T04:19:20;15.10;;;11.35;;
11839;SDS011;5979;50.800;4.904;2023-05-10T04:21:46;13.05;;;11.18;;
11839;SDS011;5979;50.800;4.904;2023-05-10T04:24:12;14.18;;;10.77;;
11839;SDS011;5979;50.800;4.904;2023-05-10T04:26:37;15.18;;;11.02;;
11839;SDS011;5979;50.800;4.904;2023-05-10T04:29:03;14.38;;;11.32;;
11839;SDS011;5979;50.800;4.904;2023-05-10T04:31:29;17.05;;;11.07;;
11839;SDS011;5979;50.800;4.904;2023-05-10T04:33:55;13.85;;;11.20;;
11839;SDS011;5979;50.800;4.904;2023-05-10T04:36:20;15.13;;;10.90;;
11839;SDS011;5979;50.800;4.904;2023-05-10T04:38:46;16.90;;;11.60;;
11839;SDS011;5979;50.800;4.904;2023-05-10T04:41:12;13.13;;;10.82;;
11839;SDS011;5979;50.800;4.904;2023-05-10T04:43:38;13.48;;;10.52;;
11839;SDS011;5979;50.800;4.904;2023-05-10T04:46:04;13.35;;;10.27;;
11839;SDS011;5979;50.800;4.904;2023-05-10T04:48:30;12.52;;;9.85;;
11839;SDS011;5979;50.800;4.904;2023-05-10T04:50:56;12.38;;;10.13;;
11839;SDS011;5979;50.800;4.904;2023-05-10T04:53:22;13.70;;;10.43;;
11839;SDS011;5979;50.800;4.904;2023-05-10T04:55:47;13.30;;;10.00;;
11839;SDS011;5979;50.800;4.904;2023-05-10T04:58:13;11.00;;;9.00;;
11839;SDS011;5979;50.800;4.904;2023-05-10T05:00:39;11.68;;;9.43;;
11839;SDS011;5979;50.800;4.904;2023-05-10T05:03:05;10.52;;;9.02;;
11839;SDS011;5979;50.800;4.904;2023-05-10T05:05:31;12.98;;;10.27;;
11839;SDS011;5979;50.800;4.904;2023-05-10T05:07:56;10.45;;;8.55;;
11839;SDS011;5979;50.800;4.904;2023-05-10T05:10:22;10.63;;;9.32;;
11839;SDS011;5979;50.800;4.904;2023-05-10T05:12:48;11.13;;;9.45;;
11839;SDS011;5979;50.800;4.904;2023-05-10T05:15:13;11.57;;;9.70;;
11839;SDS011;5979;50.800;4.904;2023-05-10T05:17:41;11.23;;;9.35;;
11839;SDS011;5979;50.800;4.904;2023-05-10T05:20:08;13.95;;;9.57;;
11839;SDS011;5979;50.800;4.904;2023-05-10T05:22:35;10.48;;;8.70;;
11839;SDS011;5979;50.800;4.904;2023-05-10T05:25:01;10.05;;;9.02;;
11839;SDS011;5979;50.800;4.904;2023-05-10T05:27:28;12.77;;;9.50;;
11839;SDS011;5979;50.800;4.904;2023-05-10T05:29:57;11.05;;;9.13;;
11839;SDS011;5979;50.800;4.904;2023-05-10T05:32:24;13.50;;;10.77;;
11839;SDS011;5979;50.800;4.904;2023-05-10T05:34:50;13.55;;;11.27;;
11839;SDS011;5979;50.800;4.904;2023-05-10T05:37:17;14.85;;;10.93;;
11839;SDS011;5979;50.800;4.904;2023-05-10T05:39:44;12.88;;;10.13;;
11839;SDS011;5979;50.800;4.904;2023-05-10T05:42:10;14.75;;;11.45;;
11839;SDS011;5979;50.800;4.904;2023-05-10T05:44:37;14.45;;;11.32;;
11839;SDS011;5979;50.800;4.904;2023-05-10T05:47:03;15.57;;;11.52;;
11839;SDS011;5979;50.800;4.904;2023-05-10T05:49:29;16.60;;;11.73;;
11839;SDS011;5979;50.800;4.904;2023-05-10T05:51:59;13.55;;;11.75;;
11839;SDS011;5979;50.800;4.904;2023-05-10T05:54:28;17.15;;;13.65;;
11839;SDS011;5979;50.800;4.904;2023-05-10T05:56:55;15.85;;;12.18;;
11839;SDS011;5979;50.800;4.904;2023-05-10T05:59:25;15.20;;;12.15;;
11839;SDS011;5979;50.800;4.904;2023-05-10T06:01:51;18.38;;;13.05;;
11839;SDS011;5979;50.800;4.904;2023-05-10T06:04:17;16.27;;;12.68;;
11839;SDS011;5979;50.800;4.904;2023-05-10T06:06:43;18.25;;;12.65;;
11839;SDS011;5979;50.800;4.904;2023-05-10T06:09:09;18.42;;;13.55;;
11839;SDS011;5979;50.800;4.904;2023-05-10T06:11:36;18.45;;;14.70;;
11839;SDS011;5979;50.800;4.904;2023-05-10T06:14:02;20.10;;;15.05;;
11839;SDS011;5979;50.800;4.904;2023-05-10T06:16:33;20.35;;;14.35;;
11839;SDS011;5979;50.800;4.904;2023-05-10T06:18:59;20.55;;;14.18;;
11839;SDS011;5979;50.800;4.904;2023-05-10T06:21:25;15.35;;;12.98;;
11839;SDS011;5979;50.800;4.904;2023-05-10T06:23:50;14.32;;;10.23;;
11839;SDS011;5979;50.800;4.904;2023-05-10T06:26:16;9.48;;;8.48;;
11839;SDS011;5979;50.800;4.904;2023-05-10T06:28:42;8.18;;;7.38;;
11839;SDS011;5979;50.800;4.904;2023-05-10T06:31:07;6.50;;;5.93;;
11839;SDS011;5979;50.800;4.904;2023-05-10T06:33:33;5.30;;;4.80;;
11839;SDS011;5979;50.800;4.904;2023-05-10T06:35:59;4.60;;;4.30;;
11839;SDS011;5979;50.800;4.904;2023-05-10T06:38:25;3.20;;;3.00;;
11839;SDS011;5979;50.800;4.904;2023-05-10T06:40:51;2.60;;;2.50;;
11839;SDS011;5979;50.800;4.904;2023-05-10T06:43:17;2.80;;;2.60;;
11839;SDS011;5979;50.800;4.904;2023-05-10T06:45:43;2.85;;;2.33;;
11839;SDS011;5979;50.800;4.904;2023-05-10T06:48:08;2.53;;;2.33;;
11839;SDS011;5979;50.800;4.904;2023-05-10T06:50:34;1.90;;;1.80;;
11839;SDS011;5979;50.800;4.904;2023-05-10T06:53:00;1.55;;;1.48;;
11839;SDS011;5979;50.800;4.904;2023-05-10T06:55:27;1.60;;;1.48;;
11839;SDS011;5979;50.800;4.904;2023-05-10T06:57:53;1.75;;;1.65;;
11839;SDS011;5979;50.800;4.904;2023-05-10T07:00:19;1.25;;;1.25;;
11839;SDS011;5979;50.800;4.904;2023-05-10T07:02:45;1.27;;;1.27;;
11839;SDS011;5979;50.800;4.904;2023-05-10T07:05:12;1.33;;;1.23;;
11839;SDS011;5979;50.800;4.904;2023-05-10T07:07:38;1.20;;;1.20;;
11839;SDS011;5979;50.800;4.904;2023-05-10T07:10:04;2.03;;;1.50;;
11839;SDS011;5979;50.800;4.904;2023-05-10T07:12:32;1.42;;;1.42;;
11839;SDS011;5979;50.800;4.904;2023-05-10T07:14:57;1.63;;;1.55;;
11839;SDS011;5979;50.800;4.904;2023-05-10T07:17:23;1.58;;;1.48;;
11839;SDS011;5979;50.800;4.904;2023-05-10T07:19:50;1.83;;;1.50;;
11839;SDS011;5979;50.800;4.904;2023-05-10T07:22:15;1.90;;;1.80;;
11839;SDS011;5979;50.800;4.904;2023-05-10T07:24:42;1.77;;;1.63;;
11839;SDS011;5979;50.800;4.904;2023-05-10T07:27:08;1.98;;;1.88;;
11839;SDS011;5979;50.800;4.904;2023-05-10T07:29:34;2.35;;;1.40;;
11839;SDS011;5979;50.800;4.904;2023-05-10T07:32:00;1.80;;;1.70;;
11839;SDS011;5979;50.800;4.904;2023-05-10T07:34:26;2.05;;;1.80;;
11839;SDS011;5979;50.800;4.904;2023-05-10T07:36:52;1.80;;;1.70;;
11839;SDS011;5979;50.800;4.904;2023-05-10T07:39:18;1.63;;;1.52;;
11839;SDS011;5979;50.800;4.904;2023-05-10T07:41:45;1.70;;;1.63;;
11839;SDS011;5979;50.800;4.904;2023-05-10T07:44:11;2.35;;;1.48;;
11839;SDS011;5979;50.800;4.904;2023-05-10T07:46:36;1.70;;;1.60;;
11839;SDS011;5979;50.800;4.904;2023-05-10T07:49:02;1.75;;;1.48;;
11839;SDS011;5979;50.800;4.904;2023-05-10T07:51:28;1.60;;;1.50;;
11839;SDS011;5979;50.800;4.904;2023-05-10T07:53:54;1.80;;;1.52;;
11839;SDS011;5979;50.800;4.904;2023-05-10T07:58:54;2.00;;;1.90;;
11839;SDS011;5979;50.800;4.904;2023-05-10T08:01:24;2.22;;;1.80;;
11839;SDS011;5979;50.800;4.904;2023-05-10T08:03:51;2.03;;;1.92;;
11839;SDS011;5979;50.800;4.904;2023-05-10T08:06:18;1.80;;;1.70;;
11839;SDS011;5979;50.800;4.904;2023-05-10T08:08:48;1.83;;;1.73;;
11839;SDS011;5979;50.800;4.904;2023-05-10T08:11:17;2.00;;;1.90;;
11839;SDS011;5979;50.800;4.904;2023-05-10T08:13:47;1.73;;;1.63;;
11839;SDS011;5979;50.800;4.904;2023-05-10T08:16:14;2.00;;;1.77;;
11839;SDS011;5979;50.800;4.904;2023-05-10T08:18:40;1.80;;;1.70;;
11839;SDS011;5979;50.800;4.904;2023-05-10T08:21:06;2.30;;;2.15;;
11839;SDS011;5979;50.800;4.904;2023-05-10T08:23:32;2.08;;;1.98;;
11839;SDS011;5979;50.800;4.904;2023-05-10T08:25:58;2.67;;;2.47;;
11839;SDS011;5979;50.800;4.904;2023-05-10T08:28:24;2.42;;;2.28;;
11839;SDS011;5979;50.800;4.904;2023-05-10T08:30:50;2.28;;;2.08;;
11839;SDS011;5979;50.800;4.904;2023-05-10T08:33:17;2.80;;;2.60;;
11839;SDS011;5979;50.800;4.904;2023-05-10T08:35:43;3.58;;;2.97;;
11839;SDS011;5979;50.800;4.904;2023-05-10T08:38:09;3.13;;;2.80;;
11839;SDS011;5979;50.800;4.904;2023-05-10T08:40:35;3.38;;;3.08;;
11839;SDS011;5979;50.800;4.904;2023-05-10T08:43:06;3.35;;;3.15;;
11839;SDS011;5979;50.800;4.904;2023-05-10T08:45:44;3.03;;;2.83;;
11839;SDS011;5979;50.800;4.904;2023-05-10T08:48:11;3.35;;;3.05;;
11839;SDS011;5979;50.800;4.904;2023-05-10T08:50:41;3.10;;;2.90;;
11839;SDS011;5979;50.800;4.904;2023-05-10T08:53:12;3.22;;;3.03;;
11839;SDS011;5979;50.800;4.904;2023-05-10T08:55:39;3.30;;;3.10;;
11839;SDS011;5979;50.800;4.904;2023-05-10T08:58:07;4.32;;;3.10;;
11839;SDS011;5979;50.800;4.904;2023-05-10T09:00:34;3.17;;;2.92;;
11839;SDS011;5979;50.800;4.904;2023-05-10T09:03:02;3.78;;;2.95;;
11839;SDS011;5979;50.800;4.904;2023-05-10T09:05:29;3.53;;;3.33;;
11839;SDS011;5979;50.800;4.904;2023-05-10T09:07:54;3.53;;;3.17;;
11839;SDS011;5979;50.800;4.904;2023-05-10T09:10:20;3.65;;;3.35;;
11839;SDS011;5979;50.800;4.904;2023-05-10T09:12:48;3.75;;;3.45;;
11839;SDS011;5979;50.800;4.904;2023-05-10T09:15:17;3.30;;;3.10;;
11839;SDS011;5979;50.800;4.904;2023-05-10T09:17:45;3.45;;;3.17;;
11839;SDS011;5979;50.800;4.904;2023-05-10T09:20:11;3.17;;;2.92;;
11839;SDS011;5979;50.800;4.904;2023-05-10T09:22:37;2.78;;;2.67;;
11839;SDS011;5979;50.800;4.904;2023-05-10T09:25:07;2.80;;;2.63;;
11839;SDS011;5979;50.800;4.904;2023-05-10T09:27:33;2.47;;;2.38;;
11839;SDS011;5979;50.800;4.904;2023-05-10T09:29:59;2.65;;;2.45;;
11839;SDS011;5979;50.800;4.904;2023-05-10T09:32:42;2.22;;;2.13;;
11839;SDS011;5979;50.800;4.904;2023-05-10T09:35:13;2.47;;;2.38;;
11839;SDS011;5979;50.800;4.904;2023-05-10T09:37:41;2.50;;;2.30;;
11839;SDS011;5979;50.800;4.904;2023-05-10T09:40:11;2.20;;;2.10;;
11839;SDS011;5979;50.800;4.904;2023-05-10T09:42:40;2.53;;;2.05;;
11839;SDS011;5979;50.800;4.904;2023-05-10T09:45:27;2.00;;;1.90;;
11839;SDS011;5979;50.800;4.904;2023-05-10T09:47:55;1.58;;;1.48;;
11839;SDS011;5979;50.800;4.904;2023-05-10T09:50:21;1.42;;;1.33;;
11839;SDS011;5979;50.800;4.904;2023-05-10T09:55:13;1.10;;;1.10;;
11839;SDS011;5979;50.800;4.904;2023-05-10T09:57:40;1.30;;;1.30;;
11839;SDS011;5979;50.800;4.904;2023-05-10T10:00:06;1.02;;;1.02;;
11839;SDS011;5979;50.800;4.904;2023-05-10T10:02:34;1.50;;;1.17;;
11839;SDS011;5979;50.800;4.904;2023-05-10T10:05:01;1.55;;;1.10;;
11839;SDS011;5979;50.800;4.904;2023-05-10T10:07:30;1.17;;;1.00;;
11839;SDS011;5979;50.800;4.904;2023-05-10T10:09:56;1.58;;;1.40;;
11839;SDS011;5979;50.800;4.904;2023-05-10T10:12:24;1.85;;;1.30;;
11839;SDS011;5979;50.800;4.904;2023-05-10T10:14:50;1.38;;;1.27;;
11839;SDS011;5979;50.800;4.904;2023-05-10T10:17:17;1.40;;;1.10;;
11839;SDS011;5979;50.800;4.904;2023-05-10T10:19:44;1.00;;;1.00;;
11839;SDS011;5979;50.800;4.904;2023-05-10T10:22:11;1.23;;;1.10;;
11839;SDS011;5979;50.800;4.904;2023-05-10T10:24:38;1.00;;;1.00;;
11839;SDS011;5979;50.800;4.904;2023-05-10T10:27:41;1.30;;;1.20;;
11839;SDS011;5979;50.800;4.904;2023-05-10T10:30:11;1.33;;;1.27;;
11839;SDS011;5979;50.800;4.904;2023-05-10T10:35:51;1.90;;;1.17;;
11839;SDS011;5979;50.800;4.904;2023-05-10T10:38:18;1.30;;;1.30;;
11839;SDS011;5979;50.800;4.904;2023-05-10T10:40:44;1.13;;;1.13;;
11839;SDS011;5979;50.800;4.904;2023-05-10T10:43:25;1.00;;;1.00;;
11839;SDS011;5979;50.800;4.904;2023-05-10T10:49:15;1.08;;;1.08;;
11839;SDS011;5979;50.800;4.904;2023-05-10T10:51:38;1.20;;;1.13;;
11839;SDS011;5979;50.800;4.904;2023-05-10T10:54:10;0.82;;;0.82;;
11839;SDS011;5979;50.800;4.904;2023-05-10T10:56:36;1.30;;;1.27;;
11839;SDS011;5979;50.800;4.904;2023-05-10T10:59:02;1.20;;;1.20;;
11839;SDS011;5979;50.800;4.904;2023-05-10T11:01:37;1.60;;;1.50;;
11839;SDS011;5979;50.800;4.904;2023-05-10T11:06:38;1.15;;;1.15;;
11839;SDS011;5979;50.800;4.904;2023-05-10T11:09:08;1.25;;;1.25;;
11839;SDS011;5979;50.800;4.904;2023-05-10T11:11:36;1.92;;;1.50;;
11839;SDS011;5979;50.800;4.904;2023-05-10T11:14:13;1.20;;;1.20;;
11839;SDS011;5979;50.800;4.904;2023-05-10T11:16:42;1.05;;;1.05;;
11839;SDS011;5979;50.800;4.904;2023-05-10T11:19:10;0.93;;;0.93;;
11839;SDS011;5979;50.800;4.904;2023-05-10T11:21:50;1.02;;;1.02;;
11839;SDS011;5979;50.800;4.904;2023-05-10T11:24:35;1.20;;;1.20;;
11839;SDS011;5979;50.800;4.904;2023-05-10T11:27:01;1.60;;;1.25;;
11839;SDS011;5979;50.800;4.904;2023-05-10T11:29:27;1.20;;;1.10;;
11839;SDS011;5979;50.800;4.904;2023-05-10T11:31:53;1.40;;;1.40;;
11839;SDS011;5979;50.800;4.904;2023-05-10T11:34:26;1.10;;;1.10;;
11839;SDS011;5979;50.800;4.904;2023-05-10T11:36:56;1.20;;;1.20;;
11839;SDS011;5979;50.800;4.904;2023-05-10T11:39:26;1.27;;;1.17;;
11839;SDS011;5979;50.800;4.904;2023-05-10T11:41:52;1.40;;;1.30;;
11839;SDS011;5979;50.800;4.904;2023-05-10T11:44:19;1.67;;;1.50;;
11839;SDS011;5979;50.800;4.904;2023-05-10T11:46:45;1.45;;;1.35;;
11839;SDS011;5979;50.800;4.904;2023-05-10T11:49:11;1.77;;;1.70;;
11839;SDS011;5979;50.800;4.904;2023-05-10T11:51:38;1.40;;;1.30;;
11839;SDS011;5979;50.800;4.904;2023-05-10T11:54:08;1.50;;;1.50;;
11839;SDS011;5979;50.800;4.904;2023-05-10T11:56:35;1.70;;;1.58;;
11839;SDS011;5979;50.800;4.904;2023-05-10T11:59:03;1.60;;;1.50;;
11839;SDS011;5979;50.800;4.904;2023-05-10T12:01:29;1.52;;;1.52;;
11839;SDS011;5979;50.800;4.904;2023-05-10T12:03:56;1.75;;;1.40;;
11839;SDS011;5979;50.800;4.904;2023-05-10T12:06:28;1.20;;;1.20;;
11839;SDS011;5979;50.800;4.904;2023-05-10T12:08:56;1.30;;;1.10;;
11839;SDS011;5979;50.800;4.904;2023-05-10T12:11:27;1.20;;;1.20;;
11839;SDS011;5979;50.800;4.904;2023-05-10T12:13:53;1.20;;;1.20;;
11839;SDS011;5979;50.800;4.904;2023-05-10T12:16:25;1.90;;;1.40;;
11839;SDS011;5979;50.800;4.904;2023-05-10T12:18:55;1.65;;;1.55;;
11839;SDS011;5979;50.800;4.904;2023-05-10T12:21:22;1.70;;;1.60;;
11839;SDS011;5979;50.800;4.904;2023-05-10T12:23:52;1.83;;;1.73;;
11839;SDS011;5979;50.800;4.904;2023-05-10T12:26:23;1.50;;;1.50;;
11839;SDS011;5979;50.800;4.904;2023-05-10T12:28:52;1.52;;;1.52;;
11839;SDS011;5979;50.800;4.904;2023-05-10T12:31:18;2.08;;;1.98;;
11839;SDS011;5979;50.800;4.904;2023-05-10T12:33:44;2.00;;;1.90;;
11839;SDS011;5979;50.800;4.904;2023-05-10T12:36:15;2.30;;;2.20;;
11839;SDS011;5979;50.800;4.904;2023-05-10T12:38:42;2.22;;;2.10;;
11839;SDS011;5979;50.800;4.904;2023-05-10T12:41:13;1.98;;;1.90;;
11839;SDS011;5979;50.800;4.904;2023-05-10T12:43:40;2.20;;;2.10;;
11839;SDS011;5979;50.800;4.904;2023-05-10T12:46:10;2.28;;;2.17;;
11839;SDS011;5979;50.800;4.904;2023-05-10T12:48:38;2.47;;;2.28;;
11839;SDS011;5979;50.800;4.904;2023-05-10T12:51:04;2.22;;;2.13;;
11839;SDS011;5979;50.800;4.904;2023-05-10T12:53:34;1.92;;;1.83;;
11839;SDS011;5979;50.800;4.904;2023-05-10T12:56:00;2.17;;;2.08;;
11839;SDS011;5979;50.800;4.904;2023-05-10T12:58:26;2.10;;;2.00;;
11839;SDS011;5979;50.800;4.904;2023-05-10T13:00:52;2.67;;;2.47;;
11839;SDS011;5979;50.800;4.904;2023-05-10T13:03:18;2.65;;;2.45;;
11839;SDS011;5979;50.800;4.904;2023-05-10T13:05:44;2.50;;;2.40;;
11839;SDS011;5979;50.800;4.904;2023-05-10T13:08:10;2.50;;;2.40;;
11839;SDS011;5979;50.800;4.904;2023-05-10T13:10:36;2.45;;;2.35;;
11839;SDS011;5979;50.800;4.904;2023-05-10T13:13:02;2.60;;;2.40;;
11839;SDS011;5979;50.800;4.904;2023-05-10T13:15:27;2.90;;;2.70;;
11839;SDS011;5979;50.800;4.904;2023-05-10T13:17:53;3.03;;;2.83;;
11839;SDS011;5979;50.800;4.904;2023-05-10T13:20:19;2.40;;;2.20;;
11839;SDS011;5979;50.800;4.904;2023-05-10T13:22:45;3.03;;;2.45;;
11839;SDS011;5979;50.800;4.904;2023-05-10T13:25:11;2.60;;;2.45;;
11839;SDS011;5979;50.800;4.904;2023-05-10T13:27:39;2.60;;;2.40;;
11839;SDS011;5979;50.800;4.904;2023-05-10T13:30:06;2.50;;;2.30;;
11839;SDS011;5979;50.800;4.904;2023-05-10T13:32:32;2.20;;;2.10;;
11839;SDS011;5979;50.800;4.904;2023-05-10T13:34:58;2.15;;;2.05;;
11839;SDS011;5979;50.800;4.904;2023-05-10T13:37:24;2.35;;;2.15;;
11839;SDS011;5979;50.800;4.904;2023-05-10T13:39:50;2.60;;;2.40;;
11839;SDS011;5979;50.800;4.904;2023-05-10T13:42:16;2.10;;;2.00;;
11839;SDS011;5979;50.800;4.904;2023-05-10T13:44:42;1.90;;;1.80;;
11839;SDS011;5979;50.800;4.904;2023-05-10T13:47:08;2.15;;;2.05;;
11839;SDS011;5979;50.800;4.904;2023-05-10T13:49:35;2.25;;;2.15;;
11839;SDS011;5979;50.800;4.904;2023-05-10T13:52:01;2.30;;;2.20;;
11839;SDS011;5979;50.800;4.904;2023-05-10T13:54:32;2.33;;;2.17;;
11839;SDS011;5979;50.800;4.904;2023-05-10T13:56:58;2.30;;;2.20;;
11839;SDS011;5979;50.800;4.904;2023-05-10T13:59:25;2.75;;;2.55;;
11839;SDS011;5979;50.800;4.904;2023-05-10T14:01:50;2.70;;;2.50;;
11839;SDS011;5979;50.800;4.904;2023-05-10T14:04:16;2.92;;;2.60;;
11839;SDS011;5979;50.800;4.904;2023-05-10T14:06:42;3.50;;;3.20;;
11839;SDS011;5979;50.800;4.904;2023-05-10T14:09:08;2.92;;;2.78;;
11839;SDS011;5979;50.800;4.904;2023-05-10T14:11:33;3.53;;;3.10;;
11839;SDS011;5979;50.800;4.904;2023-05-10T14:13:59;3.25;;;3.05;;
11839;SDS011;5979;50.800;4.904;2023-05-10T14:16:25;3.45;;;3.15;;
11839;SDS011;5979;50.800;4.904;2023-05-10T14:18:52;3.45;;;3.25;;
11839;SDS011;5979;50.800;4.904;2023-05-10T14:21:17;3.40;;;3.20;;
11839;SDS011;5979;50.800;4.904;2023-05-10T14:23:43;3.22;;;3.03;;
11839;SDS011;5979;50.800;4.904;2023-05-10T14:26:09;3.15;;;2.95;;
11839;SDS011;5979;50.800;4.904;2023-05-10T14:28:34;3.42;;;3.20;;
11839;SDS011;5979;50.800;4.904;2023-05-10T14:31:00;3.08;;;2.88;;
11839;SDS011;5979;50.800;4.904;2023-05-10T14:33:26;2.90;;;2.80;;
11839;SDS011;5979;50.800;4.904;2023-05-10T14:35:53;3.75;;;3.45;;
11839;SDS011;5979;50.800;4.904;2023-05-10T14:38:21;3.85;;;3.38;;
11839;SDS011;5979;50.800;4.904;2023-05-10T14:40:47;3.50;;;3.20;;
11839;SDS011;5979;50.800;4.904;2023-05-10T14:43:12;3.85;;;3.58;;
11839;SDS011;5979;50.800;4.904;2023-05-10T14:45:38;4.25;;;3.78;;
11839;SDS011;5979;50.800;4.904;2023-05-10T14:48:04;4.70;;;3.60;;
11839;SDS011;5979;50.800;4.904;2023-05-10T14:50:30;4.03;;;3.72;;
11839;SDS011;5979;50.800;4.904;2023-05-10T14:52:57;4.20;;;3.80;;
11839;SDS011;5979;50.800;4.904;2023-05-10T14:55:24;4.40;;;4.10;;
11839;SDS011;5979;50.800;4.904;2023-05-10T14:57:49;4.35;;;4.05;;
11839;SDS011;5979;50.800;4.904;2023-05-10T15:00:15;4.43;;;4.13;;
11839;SDS011;5979;50.800;4.904;2023-05-10T15:02:42;4.70;;;4.35;;
11839;SDS011;5979;50.800;4.904;2023-05-10T15:05:07;5.55;;;5.05;;
11839;SDS011;5979;50.800;4.904;2023-05-10T15:07:33;4.82;;;4.43;;
11839;SDS011;5979;50.800;4.904;2023-05-10T15:09:59;5.00;;;4.60;;
11839;SDS011;5979;50.800;4.904;2023-05-10T15:12:25;6.95;;;4.85;;
11839;SDS011;5979;50.800;4.904;2023-05-10T15:14:51;4.97;;;4.57;;
11839;SDS011;5979;50.800;4.904;2023-05-10T15:17:17;6.18;;;5.55;;
11839;SDS011;5979;50.800;4.904;2023-05-10T15:19:42;6.20;;;5.65;;
11839;SDS011;5979;50.800;4.904;2023-05-10T15:22:08;6.93;;;5.93;;
11839;SDS011;5979;50.800;4.904;2023-05-10T15:24:34;6.28;;;5.68;;